Time;durP1;ratioP1;P1;durP2;ratioP2;P2;SDS_P1;SDS_P2;PMS_P1;PMS_P2;Temp;Humidity;BMP_temperature;BMP_pressure;BME280_temperature;BME280_humidity;BME280_pressure;Samples;Min_cycle;Max_cycle;Signal;HPM_P1;HPM_P2
2023/10/27 00:02:23;;;;;;;1.92;0.88;;;;;;;;;;10253470;28;20082;-78
2023/10/27 00:07:26;;;;;;;5.10;1.55;;;;;;;;;;10251196;28;20119;-78
2023/10/27 00:12:30;;;;;;;3.10;0.90;;;;;;;;;;10233086;28;20062;-78
2023/10/27 00:17:34;;;;;;;2.72;1.05;;;;;;;;;;10251548;28;20073;-77
2023/10/27 00:22:38;;;;;;;2.70;0.90;;;;;;;;;;10234402;28;20065;-77
2023/10/27 00:27:41;;;;;;;1.77;0.95;;;;;;;;;;10248404;28;20047;-78
2023/10/27 00:32:47;;;;;;;3.33;0.75;;;;;;;;;;10250548;28;20051;-78
2023/10/27 00:37:50;;;;;;;2.23;0.90;;;;;;;;;;10233903;28;20058;-78
2023/10/27 00:42:56;;;;;;;2.17;1.10;;;;;;;;;;10230363;28;20074;-77
2023/10/27 00:48:03;;;;;;;2.53;1.27;;;;;;;;;;10234442;28;20070;-78
2023/10/27 00:53:07;;;;;;;4.45;1.13;;;;;;;;;;10247468;28;20079;-78
2023/10/27 00:58:11;;;;;;;2.53;1.00;;;;;;;;;;10227025;28;20048;-78
2023/10/27 01:03:16;;;;;;;1.77;1.02;;;;;;;;;;10228956;28;20058;-78
2023/10/27 01:08:20;;;;;;;2.80;1.00;;;;;;;;;;10249900;28;20610;-78
2023/10/27 01:13:23;;;;;;;3.28;1.10;;;;;;;;;;10254146;28;20176;-78
2023/10/27 01:18:28;;;;;;;2.33;1.35;;;;;;;;;;10237393;28;20066;-78
2023/10/27 01:23:33;;;;;;;3.05;1.25;;;;;;;;;;10249252;28;20051;-78
2023/10/27 01:28:36;;;;;;;2.40;0.98;;;;;;;;;;10229183;28;20055;-78
2023/10/27 01:33:39;;;;;;;2.83;0.90;;;;;;;;;;10244259;28;20100;-78
2023/10/27 01:38:44;;;;;;;1.10;0.70;;;;;;;;;;10251897;28;20453;-78
2023/10/27 01:43:48;;;;;;;3.08;1.10;;;;;;;;;;10277075;23;20065;-76
2023/10/27 01:48:51;;;;;;;3.10;1.08;;;;;;;;;;10296866;28;21023;-76
2023/10/27 01:53:56;;;;;;;2.83;1.20;;;;;;;;;;10309996;28;20114;-76
2023/10/27 01:59:00;;;;;;;4.32;0.95;;;;;;;;;;10309181;28;20497;-76
2023/10/27 02:04:04;;;;;;;1.65;0.70;;;;;;;;;;10290440;28;20731;-77
2023/10/27 02:09:08;;;;;;;3.53;1.23;;;;;;;;;;10307170;28;20042;-76
2023/10/27 02:14:12;;;;;;;2.97;0.93;;;;;;;;;;10299280;28;20047;-76
2023/10/27 02:19:16;;;;;;;2.38;1.10;;;;;;;;;;10301036;28;20062;-76
2023/10/27 02:24:20;;;;;;;1.38;0.73;;;;;;;;;;10296450;28;20042;-76
2023/10/27 02:29:24;;;;;;;2.22;0.90;;;;;;;;;;10296830;28;20473;-75
2023/10/27 02:34:27;;;;;;;4.88;1.20;;;;;;;;;;10309113;28;20071;-76
2023/10/27 02:39:32;;;;;;;4.47;1.63;;;;;;;;;;10296163;28;20054;-76
2023/10/27 02:44:36;;;;;;;3.50;1.50;;;;;;;;;;10315108;28;20520;-76
2023/10/27 02:49:39;;;;;;;3.72;1.65;;;;;;;;;;10312295;28;20074;-76
2023/10/27 02:54:44;;;;;;;2.38;0.93;;;;;;;;;;10313396;28;20403;-76
2023/10/27 02:59:47;;;;;;;4.32;1.08;;;;;;;;;;10295393;28;20059;-76
2023/10/27 03:04:53;;;;;;;2.22;1.10;;;;;;;;;;10306146;28;20556;-76
2023/10/27 03:09:58;;;;;;;3.33;0.70;;;;;;;;;;10315562;28;20669;-76
2023/10/27 03:15:01;;;;;;;5.47;0.95;;;;;;;;;;10314227;28;20125;-76
2023/10/27 03:20:05;;;;;;;2.33;0.80;;;;;;;;;;10301818;28;20052;-76
2023/10/27 03:25:10;;;;;;;2.22;0.82;;;;;;;;;;10313045;28;20089;-76
2023/10/27 03:30:14;;;;;;;1.42;0.75;;;;;;;;;;10311085;28;20074;-76
2023/10/27 03:35:18;;;;;;;2.55;0.80;;;;;;;;;;10282140;28;20151;-76
2023/10/27 03:40:22;;;;;;;2.55;0.82;;;;;;;;;;10287987;28;20508;-76
2023/10/27 03:45:26;;;;;;;2.70;1.20;;;;;;;;;;10292684;28;20073;-76
2023/10/27 03:50:29;;;;;;;2.65;1.08;;;;;;;;;;10304741;28;20058;-77
2023/10/27 03:55:34;;;;;;;2.13;0.93;;;;;;;;;;10298129;28;20138;-77
2023/10/27 04:00:38;;;;;;;3.58;1.02;;;;;;;;;;10319996;28;20141;-76
2023/10/27 04:05:41;;;;;;;4.50;0.82;;;;;;;;;;10312551;28;20057;-76
2023/10/27 04:10:46;;;;;;;1.90;0.80;;;;;;;;;;10300945;28;20050;-77
2023/10/27 04:15:51;;;;;;;1.33;0.85;;;;;;;;;;10292087;28;20142;-77
2023/10/27 04:20:54;;;;;;;3.33;1.40;;;;;;;;;;10312689;28;20039;-76
2023/10/27 04:25:59;;;;;;;2.03;1.13;;;;;;;;;;10296287;28;20395;-76
2023/10/27 04:31:03;;;;;;;2.38;0.70;;;;;;;;;;10311222;28;20149;-76
2023/10/27 04:36:07;;;;;;;2.05;1.10;;;;;;;;;;10297062;28;20054;-76
2023/10/27 04:41:12;;;;;;;2.65;1.02;;;;;;;;;;10305154;28;20043;-76
2023/10/27 04:46:15;;;;;;;4.07;0.98;;;;;;;;;;10275220;28;20474;-76
2023/10/27 04:51:19;;;;;;;10.82;1.60;;;;;;;;;;10314790;28;20050;-76
2023/10/27 04:56:23;;;;;;;4.40;1.15;;;;;;;;;;10306754;28;20042;-77
2023/10/27 05:01:27;;;;;;;2.72;1.10;;;;;;;;;;10295026;28;20046;-77
2023/10/27 05:06:32;;;;;;;1.67;0.98;;;;;;;;;;10306913;28;20055;-77
2023/10/27 05:11:37;;;;;;;2.85;0.93;;;;;;;;;;10285953;28;20276;-76
2023/10/27 05:16:41;;;;;;;1.67;0.85;;;;;;;;;;10316205;28;20054;-76
2023/10/27 05:21:44;;;;;;;1.63;0.75;;;;;;;;;;10304945;28;20050;-76
2023/10/27 05:26:49;;;;;;;1.90;0.88;;;;;;;;;;10308799;28;20057;-76
2023/10/27 05:31:53;;;;;;;2.08;1.08;;;;;;;;;;10290073;28;20136;-76
2023/10/27 05:36:56;;;;;;;2.65;1.10;;;;;;;;;;10289117;28;20060;-76
2023/10/27 05:42:01;;;;;;;3.15;0.77;;;;;;;;;;10306951;28;20070;-76
2023/10/27 05:47:04;;;;;;;2.25;1.20;;;;;;;;;;10304108;28;20821;-76
2023/10/27 05:52:07;;;;;;;2.50;0.80;;;;;;;;;;10316222;28;20074;-76
2023/10/27 05:57:12;;;;;;;2.42;0.95;;;;;;;;;;10313676;28;20043;-76
2023/10/27 06:02:16;;;;;;;2.10;1.08;;;;;;;;;;10301516;28;20512;-76
2023/10/27 06:07:19;;;;;;;1.92;0.85;;;;;;;;;;10325194;28;20053;-76
2023/10/27 06:12:23;;;;;;;1.00;0.70;;;;;;;;;;10291095;28;20046;-76
2023/10/27 06:17:27;;;;;;;1.50;0.70;;;;;;;;;;10315964;28;20046;-76
2023/10/27 06:22:30;;;;;;;1.73;0.70;;;;;;;;;;10310718;28;20133;-76
2023/10/27 06:27:38;;;;;;;2.95;1.00;;;;;;;;;;10315626;28;20468;-76
2023/10/27 06:32:41;;;;;;;2.58;0.93;;;;;;;;;;10317017;28;20141;-76
2023/10/27 06:37:45;;;;;;;1.75;0.90;;;;;;;;;;10316740;28;20105;-76
2023/10/27 06:42:49;;;;;;;2.05;0.73;;;;;;;;;;10314842;28;20078;-77
2023/10/27 06:47:52;;;;;;;3.58;1.00;;;;;;;;;;10291493;28;20134;-77
2023/10/27 06:52:56;;;;;;;0.90;0.80;;;;;;;;;;10318219;28;20772;-76
2023/10/27 06:58:00;;;;;;;1.98;1.10;;;;;;;;;;10323860;28;20145;-77
2023/10/27 07:03:04;;;;;;;2.65;1.55;;;;;;;;;;10324728;28;20062;-78
2023/10/27 07:08:09;;;;;;;3.35;2.45;;;;;;;;;;10316677;28;20050;-76
2023/10/27 07:13:14;;;;;;;2.80;1.48;;;;;;;;;;10318658;28;20030;-77
2023/10/27 07:18:17;;;;;;;1.92;1.17;;;;;;;;;;10317152;28;20054;-76
2023/10/27 07:23:20;;;;;;;5.03;2.85;;;;;;;;;;10310289;28;20531;-76
2023/10/27 07:28:25;;;;;;;5.97;2.65;;;;;;;;;;10315084;28;20105;-76
2023/10/27 07:33:29;;;;;;;3.45;1.95;;;;;;;;;;10310662;28;20134;-76
2023/10/27 07:38:32;;;;;;;1.70;1.33;;;;;;;;;;10307517;28;20137;-77
2023/10/27 07:56:31;;;;;;;2.10;1.52;;;;;;;;;;10294925;28;20050;-78
2023/10/27 08:02:39;;;;;;;2.53;1.92;;;;;;;;;;10181209;28;20110;-77
2023/10/27 08:08:40;;;;;;;2.60;1.60;;;;;;;;;;10205121;28;20062;-78
2023/10/27 08:14:42;;;;;;;3.90;2.50;;;;;;;;;;10265251;28;20047;-78
2023/10/27 08:27:27;;;;;;;3.75;2.90;;;;;;;;;;9832243;29;20141;-79
2023/10/27 08:32:37;;;;;;;3.50;2.33;;;;;;;;;;10155358;28;20050;-77
2023/10/27 08:37:41;;;;;;;9.13;5.10;;;;;;;;;;10291079;28;20046;-77
2023/10/27 08:42:47;;;;;;;10.98;6.70;;;;;;;;;;10279037;28;20042;-78
2023/10/27 08:47:53;;;;;;;;;;;;;;;;;;10290504;28;20060;-77
2023/10/27 08:52:56;;;;;;;7.23;5.00;;;;;;;;;;10289691;28;19933;-78
2023/10/27 08:58:01;;;;;;;6.25;4.43;;;;;;;;;;10297187;28;20065;-78
2023/10/27 09:03:15;;;;;;;3.85;2.58;;;;;;;;;;10316428;28;20045;-78
2023/10/27 09:08:19;;;;;;;2.45;1.83;;;;;;;;;;10305613;28;20054;-78
2023/10/27 09:13:24;;;;;;;1.42;1.08;;;;;;;;;;10313275;28;20047;-77
2023/10/27 09:18:36;;;;;;;1.52;0.60;;;;;;;;;;10274811;28;20062;-77
2023/10/27 09:23:46;;;;;;;0.73;0.60;;;;;;;;;;10295389;28;20050;-78
2023/10/27 09:29:01;;;;;;;1.30;0.68;;;;;;;;;;10300238;28;20073;-77
2023/10/27 09:34:23;;;;;;;1.47;0.80;;;;;;;;;;10282030;28;20066;-77
2023/10/27 09:39:28;;;;;;;1.42;0.93;;;;;;;;;;10292963;28;20282;-77
2023/10/27 09:44:40;;;;;;;0.70;0.60;;;;;;;;;;10295289;28;20058;-77
2023/10/27 09:49:50;;;;;;;1.70;0.70;;;;;;;;;;10281488;28;20058;-77
2023/10/27 09:54:56;;;;;;;0.50;0.50;;;;;;;;;;10294850;28;20062;-77
2023/10/27 10:00:09;;;;;;;1.27;0.60;;;;;;;;;;10283732;28;20055;-77
2023/10/27 10:05:18;;;;;;;1.10;0.75;;;;;;;;;;10295853;28;20685;-77
2023/10/27 10:10:29;;;;;;;1.33;0.70;;;;;;;;;;10293456;28;20047;-77
2023/10/27 10:15:35;;;;;;;1.65;1.23;;;;;;;;;;10279388;28;20507;-77
2023/10/27 10:20:57;;;;;;;;;;;;;;;;;;10296281;28;20058;-77
2023/10/27 10:26:00;;;;;;;1.58;0.70;;;;;;;;;;10291026;28;19953;-77
2023/10/27 10:31:35;;;;;;;0.70;0.60;;;;;;;;;;10296238;28;20042;-77
2023/10/27 10:36:40;;;;;;;2.50;0.53;;;;;;;;;;10229740;28;20464;-77
2023/10/27 10:42:03;;;;;;;3.67;0.70;;;;;;;;;;10301222;28;20051;-77
2023/10/27 10:47:18;;;;;;;1.60;0.65;;;;;;;;;;10298562;28;20050;-76
2023/10/27 10:52:22;;;;;;;0.88;0.55;;;;;;;;;;10269689;28;20664;-77
2023/10/27 10:57:27;;;;;;;1.15;0.43;;;;;;;;;;10296045;28;20141;-77
2023/10/27 11:02:32;;;;;;;0.65;0.60;;;;;;;;;;10287057;28;20050;-77
2023/10/27 11:07:36;;;;;;;1.40;0.80;;;;;;;;;;10272120;28;20083;-77
2023/10/27 11:12:39;;;;;;;3.10;0.70;;;;;;;;;;10294982;28;20055;-77
2023/10/27 11:17:52;;;;;;;2.20;0.80;;;;;;;;;;10294627;28;20416;-77
2023/10/27 11:23:08;;;;;;;1.92;0.63;;;;;;;;;;10302930;28;20085;-77
2023/10/27 11:28:26;;;;;;;2.05;0.60;;;;;;;;;;10291530;28;20058;-77
2023/10/27 11:33:31;;;;;;;3.42;0.85;;;;;;;;;;10290829;28;20106;-77
2023/10/27 11:38:35;;;;;;;1.75;0.90;;;;;;;;;;10305663;28;20047;-77
2023/10/27 11:43:38;;;;;;;2.53;0.75;;;;;;;;;;10286183;28;20107;-77
2023/10/27 11:48:45;;;;;;;3.15;0.75;;;;;;;;;;10291274;28;20077;-77
2023/10/27 11:53:48;;;;;;;;;;;;;;;;;;10285858;28;20106;-77
2023/10/27 11:58:52;;;;;;;2.13;0.90;;;;;;;;;;10293553;28;19937;-77
2023/10/27 12:03:56;;;;;;;7.13;1.30;;;;;;;;;;10288607;28;20625;-77
2023/10/27 12:09:00;;;;;;;2.67;1.05;;;;;;;;;;10281615;28;20263;-77
2023/10/27 12:14:04;;;;;;;2.03;0.98;;;;;;;;;;10273448;28;20054;-76
2023/10/27 12:19:12;;;;;;;4.15;1.27;;;;;;;;;;10292840;28;20062;-77
2023/10/27 12:24:16;;;;;;;4.88;1.13;;;;;;;;;;10299456;28;20137;-76
2023/10/27 12:29:22;;;;;;;3.00;1.02;;;;;;;;;;10292609;28;20130;-76
2023/10/27 12:34:27;;;;;;;3.13;0.80;;;;;;;;;;10287118;28;20063;-76
2023/10/27 12:39:30;;;;;;;4.93;1.50;;;;;;;;;;10279685;28;20058;-77
2023/10/27 12:44:35;;;;;;;1.50;1.00;;;;;;;;;;10267402;28;20047;-77
2023/10/27 12:49:39;;;;;;;3.03;1.70;;;;;;;;;;10272437;28;20055;-77
2023/10/27 12:54:44;;;;;;;4.95;1.50;;;;;;;;;;10295002;28;20050;-76
2023/10/27 12:59:49;;;;;;;1.98;1.20;;;;;;;;;;10300407;28;20057;-76
2023/10/27 13:04:54;;;;;;;2.30;0.57;;;;;;;;;;10306243;28;20050;-76
2023/10/27 13:09:58;;;;;;;1.83;0.93;;;;;;;;;;10296693;28;20401;-76
2023/10/27 13:15:01;;;;;;;1.73;0.63;;;;;;;;;;10288025;28;20411;-76
2023/10/27 13:20:09;;;;;;;2.13;0.98;;;;;;;;;;10297539;28;20058;-77
2023/10/27 13:25:12;;;;;;;3.80;1.10;;;;;;;;;;10279322;28;20047;-76
2023/10/27 13:30:16;;;;;;;1.45;0.75;;;;;;;;;;10269279;28;20054;-76
2023/10/27 13:35:21;;;;;;;2.97;1.10;;;;;;;;;;10285117;28;20073;-77
2023/10/27 13:40:25;;;;;;;1.05;0.65;;;;;;;;;;10283820;28;20046;-76
2023/10/27 13:45:28;;;;;;;2.42;1.08;;;;;;;;;;10298716;23;20053;-76
2023/10/27 13:50:33;;;;;;;2.08;0.75;;;;;;;;;;10251956;28;20082;-76
2023/10/27 13:55:43;;;;;;;3.53;0.98;;;;;;;;;;10253574;28;20054;-76
2023/10/27 14:00:46;;;;;;;3.40;1.00;;;;;;;;;;10256646;28;20061;-76
2023/10/27 14:05:51;;;;;;;1.60;0.55;;;;;;;;;;10246629;28;20493;-76
2023/10/27 14:10:55;;;;;;;1.75;0.70;;;;;;;;;;10250624;28;20047;-76
2023/10/27 14:15:58;;;;;;;3.05;1.00;;;;;;;;;;10256905;28;20659;-76
2023/10/27 14:21:04;;;;;;;1.35;0.50;;;;;;;;;;10233626;28;20090;-76
2023/10/27 14:26:11;;;;;;;1.95;0.75;;;;;;;;;;10249227;28;20047;-76
2023/10/27 14:31:15;;;;;;;1.02;0.50;;;;;;;;;;10255581;28;20525;-76
2023/10/27 14:36:20;;;;;;;1.60;0.60;;;;;;;;;;10256511;28;20055;-76
2023/10/27 14:41:24;;;;;;;2.05;0.65;;;;;;;;;;10262303;28;20397;-76
2023/10/27 14:46:31;;;;;;;1.10;0.50;;;;;;;;;;10261353;28;20047;-76
2023/10/27 14:51:36;;;;;;;2.35;0.70;;;;;;;;;;10260717;28;20055;-76
2023/10/27 14:56:39;;;;;;;4.10;1.05;;;;;;;;;;10250401;28;20051;-76
2023/10/27 15:01:44;;;;;;;1.85;1.13;;;;;;;;;;10251393;28;20051;-76
2023/10/27 15:06:49;;;;;;;0.68;0.50;;;;;;;;;;10257640;28;20043;-76
2023/10/27 15:11:52;;;;;;;4.97;1.13;;;;;;;;;;10256358;28;20511;-76
2023/10/27 15:16:55;;;;;;;2.58;0.90;;;;;;;;;;10261021;28;20071;-76
2023/10/27 15:22:01;;;;;;;2.25;0.95;;;;;;;;;;10237421;28;20551;-76
2023/10/27 15:27:04;;;;;;;1.20;0.50;;;;;;;;;;10259484;28;20053;-76
2023/10/27 15:32:12;;;;;;;3.83;1.13;;;;;;;;;;10226748;28;20047;-76
2023/10/27 15:37:17;;;;;;;3.78;1.20;;;;;;;;;;10255784;28;20441;-76
2023/10/27 15:42:20;;;;;;;1.08;0.63;;;;;;;;;;10256537;28;20065;-76
2023/10/27 15:47:23;;;;;;;1.13;0.60;;;;;;;;;;10249477;28;20515;-76
2023/10/27 15:52:29;;;;;;;3.20;1.30;;;;;;;;;;10255477;28;20528;-76
2023/10/27 15:57:32;;;;;;;1.97;0.70;;;;;;;;;;10242947;28;20043;-76
2023/10/27 16:02:35;;;;;;;1.95;0.70;;;;;;;;;;10235997;28;20050;-76
2023/10/27 16:07:40;;;;;;;2.80;1.00;;;;;;;;;;10253184;28;20117;-76
2023/10/27 16:12:43;;;;;;;2.45;1.00;;;;;;;;;;10251356;28;20099;-76
2023/10/27 16:17:47;;;;;;;2.70;0.90;;;;;;;;;;10244502;28;20043;-76
2023/10/27 16:22:51;;;;;;;2.13;0.80;;;;;;;;;;10250418;28;20122;-76
2023/10/27 16:27:55;;;;;;;2.65;0.80;;;;;;;;;;10242418;28;20043;-76
2023/10/27 16:32:58;;;;;;;2.33;1.00;;;;;;;;;;10251874;28;20051;-76
2023/10/27 16:38:04;;;;;;;1.10;0.70;;;;;;;;;;10244498;28;20051;-76
2023/10/27 16:43:08;;;;;;;1.67;0.50;;;;;;;;;;10248217;28;20039;-76
2023/10/27 16:48:11;;;;;;;1.33;0.65;;;;;;;;;;10249320;28;20049;-76
2023/10/27 16:53:15;;;;;;;1.00;0.43;;;;;;;;;;10246180;28;20078;-76
2023/10/27 16:58:19;;;;;;;1.63;0.65;;;;;;;;;;10229243;28;20416;-76
2023/10/27 17:03:22;;;;;;;1.33;0.60;;;;;;;;;;10245164;28;20570;-76
2023/10/27 17:08:27;;;;;;;2.40;1.23;;;;;;;;;;10243649;28;20059;-76
2023/10/27 17:13:30;;;;;;;3.20;1.02;;;;;;;;;;10245862;28;20055;-76
2023/10/27 17:18:34;;;;;;;2.20;1.02;;;;;;;;;;10252107;28;20371;-76
2023/10/27 17:23:39;;;;;;;1.48;0.90;;;;;;;;;;10243065;28;20063;-77
2023/10/27 17:28:43;;;;;;;1.50;0.75;;;;;;;;;;10246098;28;20051;-76
2023/10/27 17:33:46;;;;;;;2.28;1.00;;;;;;;;;;10242625;28;20043;-76
2023/10/27 17:38:51;;;;;;;1.77;0.70;;;;;;;;;;10243509;28;20043;-76
2023/10/27 17:43:55;;;;;;;2.50;0.80;;;;;;;;;;10261194;28;20049;-76
2023/10/27 17:48:58;;;;;;;1.48;0.63;;;;;;;;;;10262179;28;20043;-76
2023/10/27 17:54:04;;;;;;;3.17;1.20;;;;;;;;;;10266834;28;20106;-76
2023/10/27 17:59:09;;;;;;;;;;;;;;;;;;10266298;28;20512;-77
2023/10/27 18:04:12;;;;;;;3.78;1.70;;;;;;;;;;10269230;28;20443;-76
2023/10/27 18:09:20;;;;;;;5.80;2.15;;;;;;;;;;10262625;28;20122;-76
2023/10/27 18:14:24;;;;;;;6.05;2.33;;;;;;;;;;10254355;28;20400;-76
2023/10/27 18:19:27;;;;;;;4.20;2.00;;;;;;;;;;10236094;28;20075;-76
2023/10/27 18:24:34;;;;;;;5.60;1.90;;;;;;;;;;10259073;28;20043;-76
2023/10/27 18:29:39;;;;;;;3.03;1.60;;;;;;;;;;10264227;28;20590;-76
2023/10/27 18:34:42;;;;;;;1.80;1.20;;;;;;;;;;10264133;28;20051;-76
2023/10/27 18:39:47;;;;;;;3.08;1.85;;;;;;;;;;10260100;28;20079;-76
2023/10/27 18:44:51;;;;;;;3.03;1.77;;;;;;;;;;10263919;28;20070;-76
2023/10/27 18:49:54;;;;;;;5.80;2.15;;;;;;;;;;10263226;28;20461;-76
2023/10/27 18:54:59;;;;;;;2.78;1.60;;;;;;;;;;10260804;28;20505;-76
2023/10/27 19:00:04;;;;;;;2.53;1.52;;;;;;;;;;10252517;28;20525;-76
2023/10/27 19:05:09;;;;;;;2.25;1.63;;;;;;;;;;10252578;28;20570;-76
2023/10/27 19:10:14;;;;;;;3.00;1.80;;;;;;;;;;10256270;28;20063;-76
2023/10/27 19:15:19;;;;;;;4.47;2.25;;;;;;;;;;10255127;28;20101;-76
2023/10/27 19:20:25;;;;;;;2.85;2.13;;;;;;;;;;10251887;28;20047;-76
2023/10/27 19:25:31;;;;;;;4.68;2.78;;;;;;;;;;10255261;28;20424;-76
2023/10/27 19:30:36;;;;;;;3.22;2.25;;;;;;;;;;10247341;28;20675;-76
2023/10/27 19:35:41;;;;;;;4.72;2.45;;;;;;;;;;10257600;28;20055;-76
2023/10/27 19:40:46;;;;;;;9.00;3.42;;;;;;;;;;10248647;28;20047;-76
2023/10/27 19:45:50;;;;;;;3.58;1.92;;;;;;;;;;10313779;23;20052;-76
2023/10/27 19:50:53;;;;;;;3.85;1.85;;;;;;;;;;10310568;28;20196;-76
2023/10/27 19:55:58;;;;;;;1.65;1.20;;;;;;;;;;10308095;28;20073;-76
2023/10/27 20:01:10;;;;;;;3.63;1.45;;;;;;;;;;10311463;28;20133;-76
2023/10/27 20:06:15;;;;;;;3.33;1.25;;;;;;;;;;10302966;28;20047;-76
2023/10/27 20:11:20;;;;;;;2.40;1.15;;;;;;;;;;10316183;28;20046;-75
2023/10/27 20:16:23;;;;;;;1.90;0.80;;;;;;;;;;10304398;28;20090;-76
2023/10/27 20:21:27;;;;;;;1.10;0.70;;;;;;;;;;10303453;28;20174;-76
2023/10/27 20:26:32;;;;;;;2.40;0.90;;;;;;;;;;10314729;28;20051;-76
2023/10/27 20:31:36;;;;;;;2.03;0.80;;;;;;;;;;10316931;28;20137;-76
2023/10/27 20:36:39;;;;;;;1.10;0.75;;;;;;;;;;10314091;28;20083;-76
2023/10/27 20:41:45;;;;;;;1.35;0.75;;;;;;;;;;10287715;28;20563;-76
2023/10/27 20:46:49;;;;;;;1.20;0.73;;;;;;;;;;10309003;28;20051;-76
2023/10/27 20:51:53;;;;;;;3.45;0.90;;;;;;;;;;10303941;28;20138;-76
2023/10/27 20:56:57;;;;;;;2.08;1.30;;;;;;;;;;10301827;28;20397;-76
2023/10/27 21:02:02;;;;;;;2.45;1.00;;;;;;;;;;10310189;28;20501;-76
2023/10/27 21:07:05;;;;;;;0.95;0.70;;;;;;;;;;10316703;28;20054;-76
2023/10/27 21:12:10;;;;;;;1.55;0.95;;;;;;;;;;10312156;28;20128;-76
2023/10/27 21:17:14;;;;;;;2.10;0.70;;;;;;;;;;10310745;28;20061;-76
2023/10/27 21:22:18;;;;;;;1.10;0.70;;;;;;;;;;10308529;28;20039;-76
2023/10/27 21:27:23;;;;;;;2.25;0.90;;;;;;;;;;10306506;28;20392;-76
2023/10/27 21:32:27;;;;;;;2.83;0.93;;;;;;;;;;10307671;28;20107;-76
2023/10/27 21:37:30;;;;;;;2.60;0.82;;;;;;;;;;10311541;28;20055;-76
2023/10/27 21:42:35;;;;;;;3.17;1.15;;;;;;;;;;10311169;28;20047;-76
2023/10/27 21:47:39;;;;;;;2.70;1.00;;;;;;;;;;10303537;28;20046;-76
2023/10/27 21:52:42;;;;;;;3.90;1.45;;;;;;;;;;10301171;28;20051;-76
2023/10/27 21:57:47;;;;;;;1.42;0.85;;;;;;;;;;10302558;28;20423;-76
2023/10/27 22:02:51;;;;;;;3.45;1.17;;;;;;;;;;10292803;28;20769;-76
2023/10/27 22:07:54;;;;;;;2.30;1.00;;;;;;;;;;10313334;28;20488;-76
2023/10/27 22:12:59;;;;;;;3.08;0.98;;;;;;;;;;10291926;28;20061;-77
2023/10/27 22:18:05;;;;;;;1.08;0.68;;;;;;;;;;10305558;28;20058;-77
2023/10/27 22:23:09;;;;;;;1.60;0.90;;;;;;;;;;10300734;28;20073;-77
2023/10/27 22:28:15;;;;;;;3.05;0.98;;;;;;;;;;10321630;28;20042;-78
2023/10/27 22:33:19;;;;;;;6.93;1.77;;;;;;;;;;10320611;28;20051;-77
2023/10/27 22:38:22;;;;;;;6.18;1.60;;;;;;;;;;10313652;28;20043;-77
2023/10/27 22:43:27;;;;;;;4.03;1.40;;;;;;;;;;10319060;28;20058;-77
2023/10/27 22:48:31;;;;;;;2.72;1.00;;;;;;;;;;10318358;28;20050;-77
2023/10/27 22:53:34;;;;;;;1.55;0.90;;;;;;;;;;10310276;28;20085;-77
2023/10/27 22:58:39;;;;;;;3.60;1.10;;;;;;;;;;10312034;28;20101;-77
2023/10/27 23:03:42;;;;;;;3.72;1.45;;;;;;;;;;10315083;28;20058;-77
2023/10/27 23:08:46;;;;;;;2.63;0.98;;;;;;;;;;10313673;28;20130;-77
2023/10/27 23:13:51;;;;;;;3.42;1.10;;;;;;;;;;10299508;28;20087;-77
2023/10/27 23:18:54;;;;;;;1.20;0.90;;;;;;;;;;10309590;28;20089;-76
2023/10/27 23:23:58;;;;;;;1.75;0.80;;;;;;;;;;10320514;28;20529;-76
2023/10/27 23:29:02;;;;;;;2.47;1.00;;;;;;;;;;10316515;28;20117;-76
2023/10/27 23:34:08;;;;;;;2.08;1.15;;;;;;;;;;10311127;28;20107;-76
2023/10/27 23:39:12;;;;;;;1.65;0.93;;;;;;;;;;10311034;28;20050;-76
2023/10/27 23:44:18;;;;;;;0.93;0.57;;;;;;;;;;10308291;28;20050;-76
2023/10/27 23:49:21;;;;;;;1.23;0.50;;;;;;;;;;10313329;28;20046;-76
2023/10/27 23:54:25;;;;;;;1.05;0.60;;;;;;;;;;10311764;28;20050;-76
2023/10/27 23:59:29;;;;;;;1.42;0.70;;;;;;;;;;10317306;28;20042;-76
